createdAt,value
2023-02-11T00:01:08.251Z,16.90
2023-02-11T00:03:38.871Z,17.77
2023-02-11T00:06:10.306Z,17.00
2023-02-11T00:08:39.002Z,16.13
2023-02-11T00:11:07.678Z,17.00
2023-02-11T00:13:35.644Z,16.93
2023-02-11T00:16:08.207Z,16.70
2023-02-11T00:18:37.628Z,18.17
2023-02-11T00:21:09.622Z,16.93
2023-02-11T00:23:38.293Z,18.47
2023-02-11T00:26:13.726Z,16.83
2023-02-11T00:28:43.954Z,16.60
2023-02-11T00:31:12.984Z,16.70
2023-02-11T00:33:42.673Z,16.07
2023-02-11T00:36:14.841Z,16.97
2023-02-11T00:38:44.921Z,15.63
2023-02-11T00:41:13.816Z,14.37
2023-02-11T00:43:42.505Z,14.80
2023-02-11T00:46:11.150Z,15.77
2023-02-11T00:48:39.206Z,14.33
2023-02-11T00:51:09.265Z,15.13
2023-02-11T00:53:37.881Z,14.23
2023-02-11T00:56:06.735Z,15.90
2023-02-11T00:58:34.800Z,16.83
2023-02-11T01:01:02.878Z,16.27
2023-02-11T01:03:31.008Z,16.37
2023-02-11T01:05:58.967Z,17.47
2023-02-11T01:08:28.340Z,17.53
2023-02-11T01:10:58.419Z,16.83
2023-02-11T01:13:27.587Z,17.10
2023-02-11T01:15:55.685Z,16.40
2023-02-11T01:18:26.277Z,17.53
2023-02-11T01:20:55.080Z,18.13
2023-02-11T01:23:24.547Z,16.83
2023-02-11T01:25:54.408Z,17.07
2023-02-11T01:28:24.311Z,16.50
2023-02-11T01:30:54.279Z,17.70
2023-02-11T01:33:23.410Z,16.00
2023-02-11T01:35:51.821Z,16.30
2023-02-11T01:38:23.551Z,17.77
2023-02-11T01:40:57.056Z,17.77
2023-02-11T01:43:26.967Z,16.73
2023-02-11T01:46:00.716Z,18.23
2023-02-11T01:48:32.329Z,17.17
2023-02-11T01:51:05.860Z,17.60
2023-02-11T01:53:52.769Z,17.30
2023-02-11T01:56:40.699Z,16.90
2023-02-11T01:59:16.324Z,17.00
2023-02-11T02:01:47.640Z,16.93
2023-02-11T02:04:20.088Z,18.43
2023-02-11T02:06:53.087Z,16.17
2023-02-11T02:09:24.668Z,16.30
2023-02-11T02:11:54.068Z,16.07
2023-02-11T02:14:22.170Z,16.73
2023-02-11T02:16:50.318Z,15.83
2023-02-11T02:19:52.512Z,15.60
2023-02-11T02:22:54.178Z,17.37
2023-02-11T02:25:46.769Z,16.50
2023-02-11T02:28:36.178Z,17.77
2023-02-11T02:31:26.065Z,15.63
2023-02-11T02:34:01.951Z,16.17
2023-02-11T02:36:35.546Z,15.60
2023-02-11T02:39:10.639Z,15.80
2023-02-11T02:41:40.445Z,17.83
2023-02-11T02:44:09.456Z,16.83
2023-02-11T02:46:37.915Z,16.33
2023-02-11T02:49:14.593Z,17.80
2023-02-11T02:52:04.205Z,17.90
2023-02-11T02:54:58.402Z,17.27
2023-02-11T02:57:33.939Z,16.07
2023-02-11T03:00:12.978Z,16.10
2023-02-11T03:02:51.725Z,16.80
2023-02-11T03:05:27.071Z,15.80
2023-02-11T03:08:01.415Z,15.90
2023-02-11T03:10:32.531Z,17.37
2023-02-11T03:13:02.693Z,15.70
2023-02-11T03:15:36.286Z,15.70
2023-02-11T03:18:06.748Z,16.53
2023-02-11T03:20:38.201Z,16.07
2023-02-11T03:23:13.941Z,15.97
2023-02-11T03:25:46.829Z,15.83
2023-02-11T03:28:20.491Z,15.97
2023-02-11T03:30:54.625Z,15.67
2023-02-11T03:33:28.534Z,15.53
2023-02-11T03:36:01.368Z,16.67
2023-02-11T03:38:33.552Z,16.97
2023-02-11T03:41:05.864Z,15.67
2023-02-11T03:43:37.006Z,16.27
2023-02-11T03:46:06.261Z,16.60
2023-02-11T03:48:40.111Z,15.60
2023-02-11T03:51:12.061Z,16.07
2023-02-11T03:53:42.650Z,15.50
2023-02-11T03:56:14.276Z,15.67
2023-02-11T03:58:42.300Z,16.03
2023-02-11T04:01:10.473Z,16.97
2023-02-11T04:03:38.464Z,16.23
2023-02-11T04:06:07.021Z,15.90
2023-02-11T04:08:36.681Z,15.83
2023-02-11T04:11:04.658Z,16.20
2023-02-11T04:13:32.656Z,15.83
2023-02-11T04:16:00.656Z,15.23
2023-02-11T04:18:28.709Z,14.60
2023-02-11T04:20:56.692Z,15.40
2023-02-11T04:23:24.660Z,16.57
2023-02-11T04:25:54.050Z,15.83
2023-02-11T04:28:22.061Z,15.53
2023-02-11T04:30:50.832Z,14.97
2023-02-11T04:33:19.048Z,14.57
2023-02-11T04:35:47.114Z,14.40
2023-02-11T04:38:15.176Z,13.33
2023-02-11T04:40:43.137Z,13.27
2023-02-11T04:43:12.465Z,14.33
2023-02-11T04:45:40.516Z,14.33
2023-02-11T04:48:08.503Z,15.17
2023-02-11T04:50:36.498Z,13.90
2023-02-11T04:53:04.559Z,14.83
2023-02-11T04:55:32.525Z,16.23
2023-02-11T04:58:00.541Z,15.83
2023-02-11T05:00:29.943Z,16.10
2023-02-11T05:02:57.888Z,15.17
2023-02-11T05:05:25.955Z,15.70
2023-02-11T05:07:54.066Z,16.33
2023-02-11T05:10:22.032Z,16.33
2023-02-11T05:12:50.237Z,15.37
2023-02-11T05:15:18.381Z,16.10
2023-02-11T05:17:48.155Z,16.43
2023-02-11T05:20:17.059Z,15.27
2023-02-11T05:22:45.141Z,14.70
2023-02-11T05:25:13.198Z,15.30
2023-02-11T05:27:41.166Z,15.50
2023-02-11T05:30:10.584Z,15.20
2023-02-11T05:32:38.782Z,14.93
2023-02-11T05:35:09.008Z,14.40
2023-02-11T05:37:37.331Z,14.90
2023-02-11T05:40:06.193Z,14.20
2023-02-11T05:42:34.200Z,15.10
2023-02-11T05:45:02.320Z,14.90
2023-02-11T05:47:30.555Z,15.37
2023-02-11T05:49:58.531Z,14.87
2023-02-11T05:52:27.885Z,14.90
2023-02-11T05:54:55.890Z,14.47
2023-02-11T05:57:23.868Z,14.63
2023-02-11T05:59:51.834Z,15.40
2023-02-11T06:02:19.837Z,15.10
2023-02-11T06:04:48.066Z,15.00
2023-02-11T06:07:16.150Z,15.33
2023-02-11T06:09:45.522Z,14.97
2023-02-11T06:12:13.463Z,15.77
2023-02-11T06:14:41.575Z,15.27
2023-02-11T06:17:09.583Z,16.70
2023-02-11T06:19:37.734Z,17.30
2023-02-11T06:22:05.728Z,16.40
2023-02-11T06:24:58.601Z,15.73
2023-02-11T06:27:24.030Z,17.77
2023-02-11T06:29:52.490Z,16.97
2023-02-11T06:32:42.283Z,16.40
2023-02-11T06:35:11.786Z,16.17
2023-02-11T06:37:40.239Z,15.17
2023-02-11T06:40:08.829Z,16.73
2023-02-11T06:42:39.252Z,15.60
2023-02-11T06:45:09.429Z,15.67
2023-02-11T06:47:37.794Z,15.17
2023-02-11T06:50:06.546Z,14.63
2023-02-11T06:52:34.874Z,14.77
2023-02-11T06:55:02.807Z,14.87
2023-02-11T06:57:31.473Z,15.43
2023-02-11T07:00:00.905Z,14.53
2023-02-11T07:02:28.963Z,13.87
2023-02-11T07:04:56.984Z,14.20
2023-02-11T07:07:24.938Z,14.50
2023-02-11T07:09:52.948Z,15.50
2023-02-11T07:12:21.160Z,14.33
2023-02-11T07:14:49.122Z,16.77
2023-02-11T07:17:18.471Z,16.20
2023-02-11T07:19:46.424Z,15.83
2023-02-11T07:22:14.399Z,15.03
2023-02-11T07:24:42.645Z,16.50
2023-02-11T07:27:10.618Z,14.87
2023-02-11T07:29:38.702Z,14.93
2023-02-11T07:32:07.230Z,16.07
2023-02-11T07:34:36.994Z,15.80
2023-02-11T07:37:05.011Z,18.10
2023-02-11T07:39:33.160Z,19.03
2023-02-11T07:42:01.184Z,20.73
2023-02-11T07:44:29.321Z,18.93
2023-02-11T07:46:57.321Z,19.40
2023-02-11T07:49:25.379Z,19.00
2023-02-11T07:51:54.753Z,20.47
2023-02-11T07:54:22.749Z,21.13
2023-02-11T07:56:50.819Z,19.40
2023-02-11T07:59:18.778Z,20.23
2023-02-11T08:01:46.893Z,20.20
2023-02-11T08:04:14.897Z,19.77
2023-02-11T08:06:44.289Z,19.30
2023-02-11T08:09:16.576Z,19.53
2023-02-11T08:11:45.355Z,19.00
2023-02-11T08:14:13.971Z,20.00
2023-02-11T08:16:42.852Z,20.33
2023-02-11T08:19:14.338Z,19.00
2023-02-11T08:21:42.615Z,20.50
2023-02-11T08:24:11.157Z,19.37
2023-02-11T08:26:41.062Z,20.57
2023-02-11T08:29:11.537Z,19.67
2023-02-11T08:31:41.385Z,20.20
2023-02-11T08:34:11.485Z,18.73
2023-02-11T08:36:40.418Z,20.43
2023-02-11T08:39:19.632Z,17.40
2023-02-11T08:41:50.716Z,18.00
2023-02-11T08:44:18.860Z,18.20
2023-02-11T08:46:46.978Z,16.83
2023-02-11T08:49:15.272Z,17.57
2023-02-11T08:51:43.764Z,18.60
2023-02-11T08:54:12.021Z,17.87
2023-02-11T08:56:40.698Z,20.70
2023-02-11T08:59:13.629Z,19.37
2023-02-11T09:01:41.786Z,17.40
2023-02-11T09:04:11.727Z,18.87
2023-02-11T09:06:39.959Z,17.33
2023-02-11T09:09:11.648Z,17.57
2023-02-11T09:11:40.707Z,17.07
2023-02-11T09:14:16.376Z,16.77
2023-02-11T09:16:44.496Z,16.73
2023-02-11T09:19:12.503Z,15.17
2023-02-11T09:21:40.456Z,14.60
2023-02-11T09:24:08.611Z,14.67
2023-02-11T09:26:37.948Z,13.87
2023-02-11T09:29:06.546Z,12.73
2023-02-11T09:31:36.337Z,13.13
2023-02-11T09:34:06.130Z,13.20
2023-02-11T09:36:37.409Z,13.23
2023-02-11T09:39:07.964Z,15.50
2023-02-11T09:41:55.963Z,14.80
2023-02-11T09:44:26.409Z,15.70
2023-02-11T09:46:59.377Z,15.03
2023-02-11T09:49:35.575Z,14.57
2023-02-11T09:52:07.974Z,16.63
2023-02-11T09:54:42.126Z,16.07
2023-02-11T09:57:26.574Z,14.63
2023-02-11T09:59:56.993Z,14.97
2023-02-11T10:02:35.488Z,15.77
2023-02-11T10:05:34.785Z,14.33
2023-02-11T10:08:13.643Z,15.17
2023-02-11T10:10:53.380Z,16.47
2023-02-11T10:13:37.591Z,16.07
2023-02-11T10:16:19.325Z,16.57
2023-02-11T10:19:08.675Z,16.47
2023-02-11T10:21:46.651Z,17.20
2023-02-11T10:24:18.153Z,15.67
2023-02-11T10:26:46.995Z,16.57
2023-02-11T10:29:36.635Z,16.93
2023-02-11T10:32:16.917Z,16.83
2023-02-11T10:34:46.323Z,16.03
2023-02-11T10:37:15.158Z,15.60
2023-02-11T10:39:43.404Z,16.70
2023-02-11T10:42:13.831Z,16.17
2023-02-11T10:44:45.322Z,17.20
2023-02-11T10:47:20.061Z,17.50
2023-02-11T10:49:50.058Z,18.10
2023-02-11T10:52:24.856Z,16.83
2023-02-11T10:55:01.472Z,16.17
2023-02-11T10:57:34.350Z,16.37
2023-02-11T11:00:07.676Z,17.13
2023-02-11T11:02:44.033Z,17.90
2023-02-11T11:05:20.888Z,18.40
2023-02-11T11:07:55.574Z,18.20
2023-02-11T11:10:30.033Z,18.47
2023-02-11T11:12:58.022Z,17.33
2023-02-11T11:15:27.711Z,17.40
2023-02-11T11:18:21.545Z,18.53
2023-02-11T11:20:59.801Z,16.70
2023-02-11T11:23:29.461Z,17.97
2023-02-11T11:26:05.381Z,17.50
2023-02-11T11:28:38.989Z,18.30
2023-02-11T11:31:15.816Z,17.77
2023-02-11T11:33:45.665Z,17.63
2023-02-11T11:36:18.100Z,17.97
2023-02-11T11:38:50.364Z,15.13
2023-02-11T11:41:21.547Z,17.77
2023-02-11T11:44:01.111Z,18.07
2023-02-11T11:46:31.986Z,18.40
2023-02-11T11:49:20.673Z,18.97
2023-02-11T11:51:56.209Z,19.07
2023-02-11T11:54:28.435Z,18.43
2023-02-11T11:57:01.776Z,17.27
2023-02-11T11:59:30.329Z,16.37
2023-02-11T12:02:19.521Z,18.07
2023-02-11T12:05:02.106Z,18.53
2023-02-11T12:07:50.385Z,17.80
2023-02-11T12:10:33.189Z,18.07
2023-02-11T12:13:13.130Z,18.13
2023-02-11T12:15:50.908Z,17.90
2023-02-11T12:18:38.636Z,17.93
2023-02-11T12:21:23.791Z,18.07
2023-02-11T12:24:04.980Z,17.70
2023-02-11T12:26:41.649Z,16.70
2023-02-11T12:29:18.884Z,19.37
2023-02-11T12:32:04.174Z,19.67
2023-02-11T12:34:54.860Z,19.57
2023-02-11T12:37:37.505Z,16.53
2023-02-11T12:40:18.892Z,18.63
2023-02-11T12:43:14.875Z,20.00
2023-02-11T12:45:55.519Z,18.70
2023-02-11T12:48:49.193Z,20.10
2023-02-11T12:51:32.020Z,19.20
2023-02-11T12:54:16.790Z,19.50
2023-02-11T12:56:51.932Z,19.43
2023-02-11T12:59:32.916Z,20.23
2023-02-11T13:02:05.158Z,19.33
2023-02-11T13:04:38.931Z,19.73
2023-02-11T13:07:16.453Z,17.90
2023-02-11T13:09:50.128Z,19.27
2023-02-11T13:12:37.783Z,19.27
2023-02-11T13:15:08.855Z,19.63
2023-02-11T13:17:45.110Z,19.87
2023-02-11T13:20:27.289Z,20.03
2023-02-11T13:23:02.877Z,20.33
2023-02-11T13:25:37.252Z,17.83
2023-02-11T13:28:21.910Z,19.43
2023-02-11T13:30:57.746Z,19.47
2023-02-11T13:33:33.952Z,19.83
2023-02-11T13:36:25.325Z,19.90
2023-02-11T13:39:05.707Z,20.53
2023-02-11T13:41:41.697Z,19.07
2023-02-11T13:44:28.596Z,20.83
2023-02-11T13:47:02.337Z,20.27
2023-02-11T13:49:40.464Z,19.20
2023-02-11T13:52:22.550Z,19.93
2023-02-11T13:54:53.032Z,19.97
2023-02-11T13:57:40.600Z,19.17
2023-02-11T14:00:48.600Z,19.53
2023-02-11T14:03:48.989Z,19.53
2023-02-11T14:06:42.870Z,19.70
2023-02-11T14:09:37.016Z,19.97
2023-02-11T14:12:31.603Z,20.07
2023-02-11T14:15:03.818Z,19.20
2023-02-11T14:17:35.095Z,20.50
2023-02-11T14:20:26.160Z,20.77
2023-02-11T14:22:55.608Z,20.23
2023-02-11T14:25:26.789Z,21.73
2023-02-11T14:27:59.268Z,21.42
2023-02-11T14:30:47.922Z,21.08
2023-02-11T14:33:35.522Z,21.13
2023-02-11T14:36:15.090Z,21.48
2023-02-11T14:38:57.291Z,21.25
2023-02-11T14:41:27.870Z,21.00
2023-02-11T14:43:59.237Z,21.08
2023-02-11T14:46:30.132Z,20.77
2023-02-11T14:49:01.335Z,20.97
2023-02-11T14:51:32.557Z,19.95
2023-02-11T14:54:06.029Z,21.57
2023-02-11T14:56:34.499Z,19.80
2023-02-11T14:59:02.901Z,20.57
2023-02-11T15:01:33.976Z,21.33
2023-02-11T15:04:02.966Z,19.98
2023-02-11T15:06:33.839Z,19.45
2023-02-11T15:09:08.406Z,21.10
2023-02-11T15:11:41.037Z,19.45
2023-02-11T15:14:12.361Z,20.15
2023-02-11T15:16:45.172Z,20.52
2023-02-11T15:19:25.877Z,19.95
2023-02-11T15:21:54.745Z,19.90
2023-02-11T15:24:26.713Z,19.77
2023-02-11T15:26:59.056Z,20.65
2023-02-11T15:29:27.714Z,19.83
2023-02-11T15:32:14.919Z,19.88
2023-02-11T15:34:43.120Z,21.00
2023-02-11T15:37:15.193Z,19.98
2023-02-11T15:39:44.571Z,19.60
2023-02-11T15:42:25.207Z,19.35
2023-02-11T15:45:12.974Z,17.85
2023-02-11T15:47:42.029Z,17.50
2023-02-11T15:50:21.723Z,17.48
2023-02-11T15:52:50.970Z,17.55
2023-02-11T15:55:21.867Z,17.70
2023-02-11T15:57:55.248Z,17.70
2023-02-11T16:00:27.312Z,17.70
2023-02-11T16:02:55.379Z,16.70
2023-02-11T16:05:29.831Z,18.40
2023-02-11T16:07:58.804Z,16.65
2023-02-11T16:10:31.017Z,16.48
2023-02-11T16:13:19.992Z,16.48
2023-02-11T16:15:55.941Z,16.30
2023-02-11T16:18:38.746Z,15.88
2023-02-11T16:21:13.550Z,15.68
2023-02-11T16:23:43.203Z,14.40
2023-02-11T16:26:20.867Z,16.70
2023-02-11T16:28:49.592Z,15.40
2023-02-11T16:31:18.214Z,15.93
2023-02-11T16:33:46.335Z,16.17
2023-02-11T16:36:17.182Z,16.55
2023-02-11T16:38:45.176Z,16.40
2023-02-11T16:41:14.681Z,13.70
2023-02-11T16:43:42.700Z,15.32
2023-02-11T16:46:15.280Z,13.98
2023-02-11T16:48:43.534Z,13.68
2023-02-11T16:51:14.254Z,14.63
2023-02-11T16:53:42.220Z,15.10
2023-02-11T16:56:16.780Z,14.38
2023-02-11T16:58:45.288Z,14.55
2023-02-11T17:01:14.273Z,15.00
2023-02-11T17:03:43.699Z,15.17
2023-02-11T17:06:13.545Z,15.30
2023-02-11T17:08:42.125Z,14.80
2023-02-11T17:11:10.095Z,15.47
2023-02-11T17:13:39.619Z,15.80
2023-02-11T17:16:17.035Z,15.57
2023-02-11T17:18:45.025Z,16.15
2023-02-11T17:21:13.437Z,16.97
2023-02-11T17:23:41.695Z,16.23
2023-02-11T17:26:10.279Z,16.87
2023-02-11T17:28:39.646Z,15.30
2023-02-11T17:31:11.121Z,15.20
2023-02-11T17:33:39.182Z,15.27
2023-02-11T17:36:09.096Z,14.13
2023-02-11T17:38:38.312Z,14.90
2023-02-11T17:41:07.025Z,15.17
2023-02-11T17:43:35.057Z,15.50
2023-02-11T17:46:07.507Z,15.80
2023-02-11T17:48:35.594Z,16.60
2023-02-11T17:51:03.588Z,16.27
2023-02-11T17:53:31.587Z,16.70
2023-02-11T17:55:59.667Z,17.30
2023-02-11T17:58:27.643Z,16.73
2023-02-11T18:00:59.639Z,17.87
2023-02-11T18:03:29.018Z,17.30
2023-02-11T18:06:00.955Z,17.83
2023-02-11T18:08:28.960Z,17.67
2023-02-11T18:10:56.944Z,17.93
2023-02-11T18:13:24.921Z,16.57
2023-02-11T18:15:53.263Z,17.03
2023-02-11T18:18:21.617Z,17.00
2023-02-11T18:20:58.501Z,16.63
2023-02-11T18:23:27.531Z,16.93
2023-02-11T18:25:55.537Z,16.50
2023-02-11T18:28:23.699Z,17.43
2023-02-11T18:30:58.590Z,17.13
2023-02-11T18:33:27.354Z,17.47
2023-02-11T18:35:56.331Z,16.87
2023-02-11T18:38:26.045Z,17.53
2023-02-11T18:40:54.008Z,16.93
2023-02-11T18:43:21.992Z,15.50
2023-02-11T18:45:51.763Z,15.60
2023-02-11T18:48:20.098Z,16.07
2023-02-11T18:50:48.080Z,15.53
2023-02-11T18:53:16.272Z,16.10
2023-02-11T18:55:46.277Z,15.93
2023-02-11T18:58:15.364Z,15.43
2023-02-11T19:00:45.572Z,18.97
2023-02-11T19:03:13.570Z,16.93
2023-02-11T19:05:42.452Z,16.70
2023-02-11T19:08:10.752Z,17.00
2023-02-11T19:10:41.736Z,15.73
2023-02-11T19:13:11.332Z,17.73
2023-02-11T19:15:42.237Z,16.67
2023-02-11T19:18:10.593Z,16.83
2023-02-11T19:20:40.144Z,17.00
2023-02-11T19:23:08.250Z,17.17
2023-02-11T19:25:36.223Z,16.73
2023-02-11T19:28:04.368Z,17.63
2023-02-11T19:30:33.799Z,17.50
2023-02-11T19:33:01.868Z,17.27
2023-02-11T19:35:29.830Z,17.63
2023-02-11T19:37:57.774Z,17.87
2023-02-11T19:40:25.725Z,16.80
2023-02-11T19:42:53.697Z,17.43
2023-02-11T19:45:21.657Z,17.73
2023-02-11T19:47:55.381Z,17.23
2023-02-11T19:50:23.622Z,17.20
2023-02-11T19:52:51.601Z,17.10
2023-02-11T19:55:19.989Z,18.20
2023-02-11T19:57:47.994Z,17.70
2023-02-11T20:00:16.729Z,17.40
2023-02-11T20:02:44.800Z,17.83
2023-02-11T20:05:14.160Z,17.10
2023-02-11T20:07:42.104Z,15.67
2023-02-11T20:10:11.199Z,20.03
2023-02-11T20:12:39.423Z,16.80
2023-02-11T20:15:07.905Z,18.57
2023-02-11T20:17:35.878Z,19.10
2023-02-11T20:20:04.087Z,18.33
2023-02-11T20:22:33.424Z,18.13
2023-02-11T20:25:01.412Z,18.23
2023-02-11T20:27:29.501Z,17.13
2023-02-11T20:29:57.591Z,17.37
2023-02-11T20:32:25.537Z,16.27
2023-02-11T20:34:53.562Z,18.50
2023-02-11T20:37:21.526Z,18.13
2023-02-11T20:39:50.997Z,15.73
2023-02-11T20:42:18.972Z,16.57
2023-02-11T20:44:46.914Z,16.47
2023-02-11T20:47:15.888Z,15.50
2023-02-11T20:49:43.888Z,16.47
2023-02-11T20:52:11.900Z,17.30
2023-02-11T20:54:39.887Z,16.70
2023-02-11T20:57:09.213Z,16.33
2023-02-11T20:59:37.175Z,16.77
2023-02-11T21:02:05.665Z,16.93
2023-02-11T21:04:33.788Z,17.00
2023-02-11T21:07:03.179Z,18.97
2023-02-11T21:09:33.258Z,16.70
2023-02-11T21:12:04.193Z,16.57
2023-02-11T21:14:34.051Z,15.60
2023-02-11T21:17:02.393Z,16.17
2023-02-11T21:19:30.362Z,15.20
2023-02-11T21:22:00.684Z,14.80
2023-02-11T21:24:30.757Z,15.33
2023-02-11T21:26:59.807Z,14.70
2023-02-11T21:29:27.887Z,13.47
2023-02-11T21:31:57.302Z,14.57
2023-02-11T21:34:25.420Z,15.73
2023-02-11T21:36:53.438Z,16.57
2023-02-11T21:39:21.545Z,15.53
2023-02-11T21:41:49.697Z,15.40
2023-02-11T21:44:17.892Z,16.00
2023-02-11T21:46:46.082Z,15.63
2023-02-11T21:49:15.662Z,15.03
2023-02-11T21:51:43.776Z,14.63
2023-02-11T21:54:12.282Z,14.07
2023-02-11T21:56:40.657Z,14.70
2023-02-11T21:59:08.619Z,15.13
2023-02-11T22:01:36.920Z,15.20
2023-02-11T22:04:05.461Z,16.47
2023-02-11T22:06:35.542Z,16.10
2023-02-11T22:09:08.536Z,16.30
2023-02-11T22:11:36.988Z,16.30
2023-02-11T22:14:05.298Z,17.03
2023-02-11T22:16:33.963Z,17.67
2023-02-11T22:19:03.423Z,16.80
2023-02-11T22:21:31.587Z,17.43
2023-02-11T22:24:01.003Z,16.87
2023-02-11T22:26:29.580Z,17.13
2023-02-11T22:28:57.863Z,16.10
2023-02-11T22:31:29.071Z,17.20
2023-02-11T22:33:57.245Z,17.63
2023-02-11T22:36:27.225Z,20.27
2023-02-11T22:38:55.483Z,22.27
2023-02-11T22:41:24.962Z,20.37
2023-02-11T22:43:53.139Z,18.60
2023-02-11T22:46:21.506Z,17.40
2023-02-11T22:48:50.457Z,16.97
2023-02-11T22:51:20.497Z,17.60
2023-02-11T22:53:52.940Z,16.10
2023-02-11T22:56:21.990Z,15.37
2023-02-11T22:58:53.304Z,17.33
2023-02-11T23:01:21.462Z,16.97
2023-02-11T23:03:49.530Z,16.23
2023-02-11T23:06:17.975Z,17.77
2023-02-11T23:08:46.087Z,17.43
2023-02-11T23:11:17.163Z,18.13
2023-02-11T23:13:46.394Z,17.57
2023-02-11T23:16:18.232Z,16.93
2023-02-11T23:18:47.430Z,17.47
2023-02-11T23:21:17.172Z,17.83
2023-02-11T23:23:46.325Z,17.17
2023-02-11T23:26:16.821Z,17.00
2023-02-11T23:28:46.124Z,16.20
2023-02-11T23:31:18.863Z,15.67
2023-02-11T23:33:48.065Z,16.07
2023-02-11T23:36:17.021Z,16.43
2023-02-11T23:38:45.479Z,15.60
2023-02-11T23:41:14.612Z,14.43
2023-02-11T23:43:42.824Z,15.33
2023-02-11T23:46:11.695Z,15.77
2023-02-11T23:48:41.425Z,16.10
2023-02-11T23:51:10.669Z,15.87
2023-02-11T23:53:39.016Z,14.30
2023-02-11T23:56:08.748Z,16.30
2023-02-11T23:58:36.804Z,15.33
